Overseas Visayas — V7NE6 — position and weather

sailwx.info

Track history (hours):
 
Tides and Currents Weather Stations Pressure Air Temp Water Temp Dewpoint Dewpoint Depression Visibility Wind Speed Wind Dir Waves Ship Positions

Overseas Visayas

Last reported at 2018-Feb-10 06:04 UTC. Time now 2018-Feb-20 23:23 UTC.
Position N 25°26' W 115°16'.
Warning: this ship's position is 10 days out of date.

Length 228 m; draft 8.8 m.

Type: Ship (hazmat cat A). MMSI: 538002947.

Date/timePositionNaut miles runAvg speedWind from/ knotsBaromVisibWave heightAir tempDewpointWater temp
2018-Feb-10 06:04N 25°26' W 115°16'2214.5
2018-Feb-10 04:33N 25°42' W 115°32'114.8
2018-Feb-10 04:30N 25°43' W 115°32'7814.8
2018-Feb-09 23:14N 26°33' W 116°39'415.6
2018-Feb-09 22:59N 26°35' W 116°42'27615.0
2018-Feb-09 04:30N 30°06' W 120°06'714.8
2018-Feb-09 04:00N 30°12' W 120°10'714.7
2018-Feb-09 03:30N 30°19' W 120°13'714.9
2018-Feb-09 03:00N 30°26' W 120°17'8914.8
2018-Feb-08 21:00N 31°49' W 120°54'2315.1
2018-Feb-08 19:30N 32°10' W 121°01'11415.2
2018-Feb-08 12:00N 33°59' W 121°43'7414.7
2018-Feb-08 07:00N 35°09' W 122°10'1515.1
2018-Feb-08 06:00N 35°23' W 122°16'2315.0
2018-Feb-08 04:30N 35°45' W 122°24'714.8
2018-Feb-08 04:00N 35°52' W 122°27'3714.7
2018-Feb-08 01:30N 36°27' W 122°41'714.8
2018-Feb-08 01:00N 36°34' W 122°44'714.7
2018-Feb-08 00:30N 36°41' W 122°46'714.5
2018-Feb-08 00:01N 36°48' W 122°46'714.2
2018-Feb-07 23:29N 36°56' W 122°45'714.3
2018-Feb-07 23:00N 37°03' W 122°45'714.3
2018-Feb-07 22:30N 37°10' W 122°45'714.8
2018-Feb-07 22:00N 37°17' W 122°44'715.0
2018-Feb-07 21:31N 37°25' W 122°44'46 3.8
2018-Feb-07 09:30N 38°02' W 122°10'2 3.7
2018-Feb-07 09:00N 38°02' W 122°07'0 0.0
2018-Feb-06 00:11N 38°02' W 122°07'0 0.8
2018-Feb-06 00:00N 38°02' W 122°08'4 5.4
2018-Feb-05 23:18N 38°04' W 122°12'311.4
2018-Feb-05 23:00N 38°04' W 122°16'4 7.3
2018-Feb-05 22:30N 38°03' W 122°21'4 7.9
2018-Feb-05 22:00N 38°00' W 122°25'1010.0
2018-Feb-05 21:00N 37°51' W 122°26'510.4
2018-Feb-05 20:30N 37°48' W 122°32'612.1
2018-Feb-05 20:00N 37°46' W 122°39'3010.1
2018-Feb-05 17:00N 37°27' W 123°10'7 6.7
2018-Feb-05 16:00N 37°22' W 123°15'1212.5
2018-Feb-05 15:00N 37°13' W 123°25'612.2
2018-Feb-05 14:30N 37°08' W 123°31'612.1
2018-Feb-05 14:00N 37°04' W 123°36'2412.2
2018-Feb-05 11:59N 36°46' W 123°57'612.3
2018-Feb-05 11:29N 36°42' W 124°03'612.3
2018-Feb-05 10:59N 36°38' W 124°08'5212.2
2018-Feb-05 06:43N 35°59' W 124°52'212.3
2018-Feb-05 06:30N 35°58' W 124°54'  
Track history (hours):
 
Tides and Currents Weather Stations Pressure Air Temp Water Temp Dewpoint Dewpoint Depression Visibility Wind Speed Wind Dir Waves Ship Positions

Overseas Visayas

Last reported at 2018-Feb-10 06:04 UTC. Time now 2018-Feb-20 23:23 UTC.
Position N 25°26' W 115°16'.
Warning: this ship's position is 10 days out of date.

Length 228 m; draft 8.8 m.

Type: Ship (hazmat cat A). MMSI: 538002947.

Date/timePositionNaut miles runAvg speedWind from/ knotsBaromVisibWave heightAir tempDewpointWater temp
2018-Feb-10 06:04N 25°26' W 115°16'2214.5
2018-Feb-10 04:33N 25°42' W 115°32'114.8
2018-Feb-10 04:30N 25°43' W 115°32'7814.8
2018-Feb-09 23:14N 26°33' W 116°39'415.6
2018-Feb-09 22:59N 26°35' W 116°42'27615.0
2018-Feb-09 04:30N 30°06' W 120°06'714.8
2018-Feb-09 04:00N 30°12' W 120°10'714.7
2018-Feb-09 03:30N 30°19' W 120°13'714.9
2018-Feb-09 03:00N 30°26' W 120°17'8914.8
2018-Feb-08 21:00N 31°49' W 120°54'2315.1
2018-Feb-08 19:30N 32°10' W 121°01'11415.2
2018-Feb-08 12:00N 33°59' W 121°43'7414.7
2018-Feb-08 07:00N 35°09' W 122°10'1515.1
2018-Feb-08 06:00N 35°23' W 122°16'2315.0
2018-Feb-08 04:30N 35°45' W 122°24'714.8
2018-Feb-08 04:00N 35°52' W 122°27'3714.7
2018-Feb-08 01:30N 36°27' W 122°41'714.8
2018-Feb-08 01:00N 36°34' W 122°44'714.7
2018-Feb-08 00:30N 36°41' W 122°46'714.5
2018-Feb-08 00:01N 36°48' W 122°46'714.2
2018-Feb-07 23:29N 36°56' W 122°45'714.3
2018-Feb-07 23:00N 37°03' W 122°45'714.3
2018-Feb-07 22:30N 37°10' W 122°45'714.8
2018-Feb-07 22:00N 37°17' W 122°44'715.0
2018-Feb-07 21:31N 37°25' W 122°44'46 3.8
2018-Feb-07 09:30N 38°02' W 122°10'2 3.7
2018-Feb-07 09:00N 38°02' W 122°07'0 0.0
2018-Feb-06 00:11N 38°02' W 122°07'0 0.8
2018-Feb-06 00:00N 38°02' W 122°08'4 5.4
2018-Feb-05 23:18N 38°04' W 122°12'311.4
2018-Feb-05 23:00N 38°04' W 122°16'4 7.3
2018-Feb-05 22:30N 38°03' W 122°21'4 7.9
2018-Feb-05 22:00N 38°00' W 122°25'1010.0
2018-Feb-05 21:00N 37°51' W 122°26'510.4
2018-Feb-05 20:30N 37°48' W 122°32'612.1
2018-Feb-05 20:00N 37°46' W 122°39'3010.1
2018-Feb-05 17:00N 37°27' W 123°10'7 6.7
2018-Feb-05 16:00N 37°22' W 123°15'1212.5
2018-Feb-05 15:00N 37°13' W 123°25'612.2
2018-Feb-05 14:30N 37°08' W 123°31'612.1
2018-Feb-05 14:00N 37°04' W 123°36'2412.2
2018-Feb-05 11:59N 36°46' W 123°57'612.3
2018-Feb-05 11:29N 36°42' W 124°03'612.3
2018-Feb-05 10:59N 36°38' W 124°08'5212.2
2018-Feb-05 06:43N 35°59' W 124°52'212.3
2018-Feb-05 06:30N 35°58' W 124°54'  

Dump ship's entire track history